createdAt,value
2019-02-27T00:00:00.674Z,22.02
2019-02-27T00:02:31.549Z,21.02
2019-02-27T00:05:02.302Z,21.05
2019-02-27T00:07:33.038Z,24.55
2019-02-27T00:10:06.109Z,24.35
2019-02-27T00:12:36.609Z,22.50
2019-02-27T00:15:08.183Z,23.95
2019-02-27T00:17:38.658Z,23.85
2019-02-27T00:20:09.284Z,21.10
2019-02-27T00:22:40.120Z,23.00
2019-02-27T00:25:10.875Z,22.93
2019-02-27T00:27:41.681Z,23.15
2019-02-27T00:30:12.383Z,21.90
2019-02-27T00:32:43.254Z,22.55
2019-02-27T00:35:14.007Z,25.57
2019-02-27T00:37:44.763Z,24.95
2019-02-27T00:40:15.423Z,26.55
2019-02-27T00:42:46.272Z,19.90
2019-02-27T00:45:16.718Z,26.75
2019-02-27T00:47:47.508Z,22.82
2019-02-27T00:50:18.225Z,26.02
2019-02-27T00:52:51.105Z,23.07
2019-02-27T00:55:21.573Z,25.45
2019-02-27T00:57:54.465Z,24.67
2019-02-27T01:00:24.514Z,28.50
2019-02-27T01:02:55.472Z,29.90
2019-02-27T01:05:26.105Z,30.45
2019-02-27T01:10:26.714Z,35.85
2019-02-27T01:12:58.212Z,32.20
2019-02-27T01:15:29.233Z,27.55
2019-02-27T01:20:29.829Z,29.87
2019-02-27T01:23:00.581Z,25.80
2019-02-27T01:25:31.233Z,28.80
2019-02-27T01:28:02.193Z,24.25
2019-02-27T01:30:32.825Z,23.32
2019-02-27T01:33:04.169Z,21.75
2019-02-27T01:35:35.273Z,25.48
2019-02-27T01:38:05.972Z,27.40
2019-02-27T01:40:36.558Z,26.20
2019-02-27T01:43:07.430Z,24.65
2019-02-27T01:45:38.185Z,25.40
2019-02-27T01:48:09.778Z,25.27
2019-02-27T01:50:40.494Z,23.98
2019-02-27T01:55:41.204Z,24.80
2019-02-27T01:58:11.851Z,22.17
2019-02-27T02:00:42.709Z,21.77
2019-02-27T02:03:14.290Z,20.72
2019-02-27T02:05:44.932Z,22.27
2019-02-27T02:08:15.787Z,23.92
2019-02-27T02:10:46.425Z,19.87
2019-02-27T02:16:03.493Z,21.12
2019-02-27T02:18:39.871Z,22.85
2019-02-27T02:21:19.815Z,19.17
2019-02-27T02:24:08.585Z,27.55
2019-02-27T02:26:42.343Z,26.73
2019-02-27T02:29:28.604Z,31.55
2019-02-27T02:32:08.740Z,23.20
2019-02-27T02:35:00.955Z,28.70
2019-02-27T02:37:55.774Z,27.35
2019-02-27T02:41:08.018Z,23.67
2019-02-27T02:54:40.829Z,17.82
2019-02-27T02:57:17.236Z,20.27
2019-02-27T03:00:12.427Z,19.45
2019-02-27T03:03:00.774Z,22.77
2019-02-27T03:05:51.144Z,25.88
2019-02-27T03:08:30.668Z,23.27
2019-02-27T03:11:25.911Z,25.20
2019-02-27T03:14:18.595Z,23.52
2019-02-27T03:17:09.026Z,25.82
2019-02-27T03:19:45.672Z,27.37
2019-02-27T03:22:40.487Z,25.35
2019-02-27T03:25:21.699Z,20.37
2019-02-27T03:28:15.160Z,18.67
2019-02-27T03:30:54.821Z,15.38
2019-02-27T03:33:37.124Z,13.90
2019-02-27T03:36:16.570Z,16.15
2019-02-27T03:39:00.185Z,18.27
2019-02-27T03:41:36.897Z,19.32
2019-02-27T03:44:20.602Z,17.15
2019-02-27T03:47:16.699Z,16.07
2019-02-27T03:50:15.021Z,16.17
2019-02-27T03:53:11.101Z,13.97
2019-02-27T03:55:56.630Z,14.65
2019-02-27T03:58:51.599Z,14.98
2019-02-27T04:01:34.305Z,16.85
2019-02-27T04:04:17.246Z,19.92
2019-02-27T04:07:09.292Z,17.77
2019-02-27T04:09:40.030Z,20.25
2019-02-27T04:12:16.023Z,14.98
2019-02-27T04:14:43.082Z,18.80
2019-02-27T04:17:13.845Z,15.55
2019-02-27T04:19:44.593Z,16.45
2019-02-27T04:22:15.356Z,14.93
2019-02-27T04:24:46.100Z,15.30
2019-02-27T04:27:20.206Z,13.95
2019-02-27T04:29:48.922Z,18.45
2019-02-27T04:32:19.894Z,17.80
2019-02-27T04:34:50.528Z,17.82
2019-02-27T04:39:51.647Z,15.05
2019-02-27T04:42:25.371Z,15.98
2019-02-27T04:44:54.878Z,18.12
2019-02-27T04:47:28.827Z,16.85
2019-02-27T04:49:57.728Z,17.42
2019-02-27T04:52:28.586Z,18.02
2019-02-27T04:54:59.341Z,11.73
2019-02-27T04:57:30.817Z,11.93
2019-02-27T05:00:02.058Z,12.20
2019-02-27T05:02:32.927Z,11.45
2019-02-27T05:05:06.134Z,10.50
2019-02-27T05:07:36.363Z,12.70
2019-02-27T05:10:09.373Z,10.72
2019-02-27T05:12:39.830Z,8.80
2019-02-27T05:17:40.215Z,12.60
2019-02-27T05:20:12.481Z,9.55
2019-02-27T05:22:43.037Z,12.13
2019-02-27T05:25:14.476Z,11.33
2019-02-27T05:27:45.686Z,11.18
2019-02-27T05:30:16.421Z,13.45
2019-02-27T05:32:47.294Z,11.10
2019-02-27T05:35:17.945Z,10.68
2019-02-27T05:37:48.813Z,11.03
2019-02-27T05:40:19.658Z,12.05
2019-02-27T05:42:50.399Z,10.68
2019-02-27T05:45:20.942Z,8.03
2019-02-27T05:47:51.492Z,10.45
2019-02-27T05:50:22.367Z,9.70
2019-02-27T05:52:53.018Z,8.80
2019-02-27T05:55:23.668Z,10.28
2019-02-27T05:57:54.405Z,9.43
2019-02-27T06:00:24.954Z,7.75
2019-02-27T06:05:26.667Z,9.80
2019-02-27T06:10:27.159Z,12.20
2019-02-27T06:12:57.811Z,9.70
2019-02-27T06:15:28.648Z,9.33
2019-02-27T06:17:59.841Z,10.00
2019-02-27T06:20:30.583Z,11.80
2019-02-27T06:23:04.172Z,9.65
2019-02-27T06:25:33.739Z,10.85
2019-02-27T06:28:04.498Z,11.63
2019-02-27T06:30:35.153Z,12.37
2019-02-27T06:33:06.513Z,12.75
2019-02-27T06:35:37.250Z,12.25
2019-02-27T06:38:07.918Z,14.00
2019-02-27T06:40:42.081Z,10.25
2019-02-27T06:43:10.860Z,10.35
2019-02-27T06:45:45.572Z,9.23
2019-02-27T06:48:13.591Z,12.07
2019-02-27T06:50:44.230Z,9.85
2019-02-27T06:53:16.388Z,10.68
2019-02-27T06:55:46.961Z,12.05
2019-02-27T06:58:17.731Z,10.63
2019-02-27T07:00:48.481Z,10.25
2019-02-27T07:03:19.136Z,8.48
2019-02-27T07:08:19.519Z,9.53
2019-02-27T07:13:21.588Z,10.83
2019-02-27T07:15:52.191Z,8.33
2019-02-27T07:20:52.580Z,8.97
2019-02-27T07:25:54.084Z,9.73
2019-02-27T07:30:54.567Z,9.47
2019-02-27T07:33:25.525Z,9.98
2019-02-27T07:35:56.074Z,10.45
2019-02-27T07:40:56.868Z,9.58
2019-02-27T07:45:57.046Z,11.10
2019-02-27T07:48:27.905Z,12.40
2019-02-27T07:50:58.662Z,15.78
2019-02-27T07:53:29.305Z,13.25
2019-02-27T07:56:00.147Z,12.37
2019-02-27T07:58:33.629Z,9.40
2019-02-27T08:01:04.593Z,9.33
2019-02-27T08:03:35.066Z,11.90
2019-02-27T08:06:05.819Z,9.13
2019-02-27T08:11:06.303Z,7.10
2019-02-27T08:16:06.689Z,6.67
2019-02-27T08:18:38.164Z,7.90
2019-02-27T08:21:08.632Z,7.47
2019-02-27T08:26:09.193Z,5.87
2019-02-27T08:31:09.594Z,6.53
2019-02-27T08:33:40.550Z,7.08
2019-02-27T08:36:11.103Z,7.67
2019-02-27T08:41:12.271Z,8.38
2019-02-27T08:43:42.526Z,9.08
2019-02-27T08:48:44.359Z,8.08
2019-02-27T08:51:14.806Z,6.08
2019-02-27T08:53:45.437Z,8.05
2019-02-27T08:58:45.745Z,8.30
2019-02-27T09:03:46.203Z,7.35
2019-02-27T09:06:18.666Z,6.65
2019-02-27T09:08:49.417Z,7.75
2019-02-27T09:11:20.765Z,5.50
2019-02-27T09:13:50.959Z,9.95
2019-02-27T09:18:52.791Z,8.25
2019-02-27T09:21:24.954Z,7.80
2019-02-27T09:23:55.629Z,7.92
2019-02-27T09:26:26.280Z,7.72
2019-02-27T09:28:56.932Z,5.97
2019-02-27T09:33:57.622Z,8.50
2019-02-27T09:38:58.309Z,7.03
2019-02-27T09:41:28.858Z,9.68
2019-02-27T09:44:01.304Z,9.23
2019-02-27T09:46:31.597Z,10.65
2019-02-27T09:49:06.794Z,8.20
2019-02-27T09:51:34.431Z,8.50
2019-02-27T09:56:34.916Z,10.60
2019-02-27T09:59:05.673Z,8.38
2019-02-27T10:01:36.204Z,10.08
2019-02-27T10:04:06.956Z,9.10
2019-02-27T10:09:07.747Z,9.60
2019-02-27T10:11:38.415Z,9.65
2019-02-27T10:14:08.947Z,9.68
2019-02-27T10:19:09.435Z,10.13
2019-02-27T10:21:41.331Z,9.65
2019-02-27T10:24:11.863Z,12.05
2019-02-27T10:26:42.635Z,10.32
2019-02-27T10:31:44.500Z,8.90
2019-02-27T10:34:17.576Z,8.43
2019-02-27T10:36:48.433Z,12.18
2019-02-27T10:39:19.164Z,8.88
2019-02-27T10:44:21.083Z,10.38
2019-02-27T10:46:52.154Z,8.23
2019-02-27T10:49:22.672Z,9.00
2019-02-27T10:54:23.163Z,7.60
2019-02-27T10:59:23.642Z,5.87
2019-02-27T11:04:24.030Z,6.75
2019-02-27T11:09:26.317Z,4.92
2019-02-27T11:11:56.612Z,6.05
2019-02-27T11:17:02.050Z,6.45
2019-02-27T11:19:30.817Z,3.65
2019-02-27T11:24:31.301Z,6.40
2019-02-27T11:29:33.099Z,6.87
2019-02-27T11:34:33.600Z,6.37
2019-02-27T11:39:34.905Z,6.15
2019-02-27T11:42:05.557Z,7.58
2019-02-27T11:44:36.224Z,4.97
2019-02-27T11:47:11.196Z,6.83
2019-02-27T11:49:39.396Z,7.25
2019-02-27T11:52:10.005Z,6.33
2019-02-27T11:57:11.920Z,7.15
2019-02-27T12:02:13.020Z,5.78
2019-02-27T12:07:17.182Z,7.07
2019-02-27T12:09:45.588Z,6.70
2019-02-27T12:14:45.869Z,5.78
2019-02-27T12:19:46.233Z,7.30
2019-02-27T12:22:16.801Z,7.28
2019-02-27T12:24:47.228Z,6.00
2019-02-27T12:27:37.760Z,10.58
2019-02-27T12:29:50.698Z,9.73
2019-02-27T12:34:52.700Z,8.33
2019-02-27T12:39:54.534Z,5.33
2019-02-27T12:44:55.019Z,8.10
2019-02-27T12:49:55.402Z,16.20
2019-02-27T12:52:25.727Z,10.68
2019-02-27T12:57:26.315Z,11.22
2019-02-27T12:59:57.087Z,11.73
2019-02-27T13:02:35.459Z,13.83
2019-02-27T13:04:59.822Z,12.00
2019-02-27T13:07:30.680Z,12.33
2019-02-27T13:10:01.434Z,8.98
2019-02-27T13:15:06.606Z,10.77
2019-02-27T13:17:34.083Z,10.05
2019-02-27T13:22:35.286Z,15.03
2019-02-27T13:25:06.567Z,14.73
2019-02-27T13:27:36.894Z,12.45
2019-02-27T13:30:16.360Z,10.98
2019-02-27T13:32:47.323Z,15.13
2019-02-27T13:35:20.101Z,13.30
2019-02-27T13:37:50.036Z,13.15
2019-02-27T13:40:22.599Z,15.18
2019-02-27T13:42:53.754Z,14.05
2019-02-27T13:45:26.879Z,9.68
2019-02-27T13:47:58.989Z,9.73
2019-02-27T13:50:29.652Z,8.35
2019-02-27T13:55:30.138Z,4.90
2019-02-27T14:00:34.099Z,5.25
2019-02-27T14:03:04.527Z,5.42
2019-02-27T14:05:36.059Z,9.50
2019-02-27T14:08:06.789Z,6.87
2019-02-27T14:13:09.775Z,8.73
2019-02-27T14:15:39.222Z,7.83
2019-02-27T14:18:09.789Z,7.12
2019-02-27T14:20:40.336Z,8.38
2019-02-27T14:25:42.149Z,12.13
2019-02-27T14:28:12.783Z,9.08
2019-02-27T14:30:46.015Z,7.30
2019-02-27T14:33:19.324Z,11.20
2019-02-27T14:35:49.850Z,8.88
2019-02-27T14:38:21.863Z,7.95
2019-02-27T14:40:52.501Z,10.05
2019-02-27T14:45:54.315Z,8.38
2019-02-27T14:48:24.933Z,12.13
2019-02-27T14:50:55.622Z,15.32
2019-02-27T14:53:26.477Z,20.82
2019-02-27T14:55:57.332Z,15.83
2019-02-27T14:58:27.988Z,12.30
2019-02-27T15:03:30.044Z,11.97
2019-02-27T15:06:00.431Z,12.15
2019-02-27T15:11:01.043Z,15.63
2019-02-27T15:13:31.791Z,23.12
2019-02-27T15:16:02.326Z,20.17
2019-02-27T15:21:02.929Z,24.10
2019-02-27T15:26:03.401Z,29.37
2019-02-27T15:28:34.167Z,29.45
2019-02-27T15:31:04.820Z,34.18
2019-02-27T15:33:39.086Z,32.98
2019-02-27T15:36:08.885Z,34.38
2019-02-27T15:38:39.740Z,31.73
2019-02-27T15:41:10.477Z,28.73
2019-02-27T15:43:41.145Z,29.87
2019-02-27T15:46:11.798Z,26.37
2019-02-27T15:48:42.656Z,30.50
2019-02-27T15:51:13.518Z,23.87
2019-02-27T15:53:49.606Z,25.80
2019-02-27T15:56:16.331Z,30.10
2019-02-27T16:01:16.834Z,25.67
2019-02-27T16:03:47.568Z,24.40
2019-02-27T16:06:18.222Z,27.67
2019-02-27T16:08:49.020Z,25.37
2019-02-27T16:11:19.523Z,21.87
2019-02-27T16:13:50.397Z,21.90
2019-02-27T16:16:23.218Z,22.35
2019-02-27T16:18:53.422Z,24.90
2019-02-27T16:26:27.006Z,23.77
2019-02-27T16:28:56.642Z,22.45
2019-02-27T16:31:27.517Z,21.95
2019-02-27T16:33:59.426Z,23.18
2019-02-27T16:36:36.188Z,27.20
2019-02-27T16:39:07.005Z,22.93
2019-02-27T16:41:34.522Z,24.60
2019-02-27T16:46:35.011Z,30.37
2019-02-27T16:49:09.831Z,27.62
2019-02-27T16:51:37.843Z,25.70
2019-02-27T16:54:08.687Z,26.97
2019-02-27T16:56:39.556Z,32.70
2019-02-27T16:59:12.150Z,33.05
2019-02-27T17:01:42.373Z,29.48
2019-02-27T17:04:13.228Z,37.40
2019-02-27T17:06:44.222Z,31.23
2019-02-27T17:09:14.960Z,35.15
2019-02-27T17:11:45.697Z,32.50
2019-02-27T17:14:16.553Z,42.78
2019-02-27T17:16:47.204Z,45.35
2019-02-27T17:21:47.588Z,44.00
2019-02-27T17:26:49.520Z,37.65
2019-02-27T17:29:22.829Z,35.58
2019-02-27T17:31:55.652Z,39.13
2019-02-27T17:34:24.977Z,41.18
2019-02-27T17:36:55.488Z,41.37
2019-02-27T17:39:28.972Z,42.05
2019-02-27T17:42:00.496Z,41.48
2019-02-27T17:44:30.939Z,42.62
2019-02-27T17:49:32.851Z,35.73
2019-02-27T17:52:11.087Z,37.78
2019-02-27T17:54:35.485Z,34.55
2019-02-27T17:57:06.140Z,41.77
2019-02-27T17:59:42.034Z,34.80
2019-02-27T18:02:09.075Z,34.18
2019-02-27T18:04:40.607Z,38.40
2019-02-27T18:07:11.182Z,30.35
2019-02-27T18:09:41.933Z,33.65
2019-02-27T18:12:13.606Z,29.80
2019-02-27T18:14:46.827Z,32.33
2019-02-27T18:17:16.874Z,28.38
2019-02-27T18:19:50.331Z,26.77
2019-02-27T18:22:19.795Z,28.87
2019-02-27T18:24:50.258Z,27.48
2019-02-27T18:27:24.727Z,27.07
2019-02-27T18:29:53.095Z,26.68
2019-02-27T18:32:23.832Z,31.70
2019-02-27T18:34:55.312Z,31.15
2019-02-27T18:37:26.178Z,32.00
2019-02-27T18:39:57.052Z,36.42
2019-02-27T18:42:27.668Z,34.13
2019-02-27T18:44:58.421Z,38.23
2019-02-27T18:47:29.177Z,43.38
2019-02-27T18:50:00.054Z,42.98
2019-02-27T18:52:34.176Z,50.75
2019-02-27T18:57:35.058Z,44.33
2019-02-27T19:00:09.099Z,44.13
2019-02-27T19:02:39.850Z,35.98
2019-02-27T19:05:10.811Z,33.30
2019-02-27T19:07:41.666Z,34.67
2019-02-27T19:10:15.078Z,36.13
2019-02-27T19:12:45.509Z,37.03
2019-02-27T19:15:19.448Z,34.25
2019-02-27T19:17:50.099Z,32.60
2019-02-27T19:20:29.551Z,29.48
2019-02-27T19:23:00.517Z,33.80
2019-02-27T19:25:34.195Z,31.85
2019-02-27T19:28:03.327Z,33.80
2019-02-27T19:30:34.765Z,26.97
2019-02-27T19:33:05.364Z,30.45
2019-02-27T19:35:36.918Z,30.12
2019-02-27T19:38:12.592Z,31.02
2019-02-27T19:40:39.999Z,34.00
2019-02-27T19:43:10.630Z,30.75
2019-02-27T19:45:42.320Z,32.08
2019-02-27T19:48:13.177Z,34.80
2019-02-27T19:50:46.296Z,30.80
2019-02-27T19:53:16.407Z,33.45
2019-02-27T19:55:47.162Z,31.07
2019-02-27T19:58:18.360Z,32.60
2019-02-27T20:00:49.012Z,33.70
2019-02-27T20:05:50.548Z,33.53
2019-02-27T20:08:21.832Z,35.28
2019-02-27T20:10:52.692Z,34.25
2019-02-27T20:13:24.766Z,34.50
2019-02-27T20:15:55.443Z,32.60
2019-02-27T20:18:26.299Z,29.02
2019-02-27T20:20:57.051Z,32.65
2019-02-27T20:23:27.702Z,27.62
2019-02-27T20:25:58.354Z,28.80
2019-02-27T20:28:31.804Z,27.52
2019-02-27T20:31:01.999Z,27.55
2019-02-27T20:36:04.338Z,29.05
2019-02-27T20:38:35.088Z,27.90
2019-02-27T20:41:06.743Z,28.20
2019-02-27T20:43:37.502Z,30.95
2019-02-27T20:46:10.303Z,27.50
2019-02-27T20:48:40.461Z,27.13
2019-02-27T20:51:11.602Z,29.70
2019-02-27T20:53:42.274Z,24.82
2019-02-27T20:56:13.025Z,31.45
2019-02-27T20:58:43.456Z,30.60
2019-02-27T21:01:14.246Z,34.25
2019-02-27T21:03:44.984Z,35.03
2019-02-27T21:06:15.513Z,30.37
2019-02-27T21:11:16.050Z,34.97
2019-02-27T21:13:49.308Z,32.15
2019-02-27T21:16:19.056Z,37.42
2019-02-27T21:18:49.795Z,29.42
2019-02-27T21:21:20.753Z,35.95
2019-02-27T21:23:51.506Z,33.02
2019-02-27T21:26:22.975Z,31.62
2019-02-27T21:28:58.714Z,33.55
2019-02-27T21:31:27.638Z,36.25
2019-02-27T21:33:58.323Z,36.08
2019-02-27T21:36:30.090Z,33.60
2019-02-27T21:39:01.060Z,34.67
2019-02-27T21:44:01.117Z,31.93
2019-02-27T21:46:31.993Z,32.03
2019-02-27T21:51:32.170Z,32.95
2019-02-27T21:56:33.881Z,32.10
2019-02-27T21:59:05.798Z,30.62
2019-02-27T22:01:36.395Z,37.90
2019-02-27T22:04:09.779Z,33.45
2019-02-27T22:06:39.350Z,36.85
2019-02-27T22:09:13.420Z,39.45
2019-02-27T22:11:42.169Z,33.15
2019-02-27T22:14:13.045Z,35.05
2019-02-27T22:16:43.681Z,36.38
2019-02-27T22:19:14.451Z,38.20
2019-02-27T22:21:45.023Z,34.63
2019-02-27T22:24:20.461Z,34.30
2019-02-27T22:26:48.348Z,35.38
2019-02-27T22:29:19.085Z,39.23
2019-02-27T22:31:49.753Z,39.40
2019-02-27T22:34:20.591Z,37.08
2019-02-27T22:36:52.489Z,33.78
2019-02-27T22:39:23.432Z,39.75
2019-02-27T22:41:54.083Z,43.75
2019-02-27T22:46:55.793Z,51.35
2019-02-27T22:49:26.547Z,57.00
2019-02-27T22:51:57.200Z,71.77
2019-02-27T22:54:28.054Z,64.40
2019-02-27T22:56:58.809Z,76.70
2019-02-27T22:59:29.580Z,69.30
2019-02-27T23:02:00.214Z,81.65
2019-02-27T23:07:01.228Z,81.65
2019-02-27T23:09:31.863Z,76.40
2019-02-27T23:12:02.735Z,75.83
2019-02-27T23:17:03.102Z,70.20
2019-02-27T23:22:03.398Z,76.00
2019-02-27T23:24:33.929Z,72.77
2019-02-27T23:27:04.792Z,68.12
2019-02-27T23:29:39.665Z,63.08
2019-02-27T23:32:07.521Z,70.87
2019-02-27T23:34:38.459Z,75.52
2019-02-27T23:37:10.683Z,63.83
2019-02-27T23:39:42.870Z,60.20
2019-02-27T23:42:13.726Z,68.25
2019-02-27T23:47:14.097Z,60.33
2019-02-27T23:49:44.750Z,62.10
2019-02-27T23:54:45.247Z,84.03
2019-02-27T23:57:15.878Z,95.77
2019-02-27T23:59:46.634Z,95.50
